Time;durP1;ratioP1;P1;durP2;ratioP2;P2;SDS_P1;SDS_P2;PMS_P1;PMS_P2;Temp;Humidity;BMP_temperature;BMP_pressure;BME280_temperature;BME280_humidity;BME280_pressure;Samples;Min_cycle;Max_cycle;Signal;HPM_P1;HPM_P2
2023/01/07 00:01:16;;;;;;;2.22;1.50;;;;;;;9.93;nan;101023.50;5024648;28;20503;-86
2023/01/07 00:03:42;;;;;;;2.90;1.70;;;;;;;9.87;nan;101015.31;5025444;28;20046;-86
2023/01/07 00:06:10;;;;;;;2.83;1.48;;;;;;;9.88;nan;101009.06;5006543;28;20033;-85
2023/01/07 00:08:38;;;;;;;1.95;1.40;;;;;;;9.87;nan;101016.16;5025928;28;20037;-87
2023/01/07 00:11:15;;;;;;;2.00;1.50;;;;;;;9.89;nan;101010.72;5024580;28;20038;-86
2023/01/07 00:13:41;;;;;;;2.50;1.42;;;;;;;9.89;nan;101001.00;5019063;28;20095;-86
2023/01/07 00:16:11;;;;;;;2.40;1.52;;;;;;;9.91;nan;101001.69;5021284;28;20041;-86
2023/01/07 00:18:37;;;;;;;2.30;1.40;;;;;;;9.87;nan;101000.28;5025562;28;20045;-85
2023/01/07 00:21:07;;;;;;;3.75;1.60;;;;;;;9.90;nan;100994.72;5026993;28;20088;-86
2023/01/07 00:23:34;;;;;;;3.50;1.95;;;;;;;9.88;nan;100996.66;5016396;28;20084;-85
2023/01/07 00:26:05;;;;;;;2.60;1.40;;;;;;;9.91;nan;100998.19;5028896;28;20036;-86
2023/01/07 00:28:33;;;;;;;2.35;1.52;;;;;;;9.90;nan;100992.09;5026247;28;20539;-86
2023/01/07 00:31:07;;;;;;;2.50;1.60;;;;;;;9.92;nan;100992.78;5023863;28;20060;-86
2023/01/07 00:33:40;;;;;;;2.10;1.42;;;;;;;9.93;nan;100989.16;5026926;28;20025;-86
2023/01/07 00:36:07;;;;;;;2.67;1.70;;;;;;;9.94;nan;100979.47;5024220;28;20057;-88
2023/01/07 00:38:33;;;;;;;2.33;1.60;;;;;;;9.93;nan;100986.53;5011128;28;20030;-86
2023/01/07 00:40:58;;;;;;;2.55;1.70;;;;;;;9.95;nan;100978.47;5005636;28;20053;-86
2023/01/07 00:43:24;;;;;;;2.33;1.48;;;;;;;9.95;nan;100975.84;5009235;28;20037;-85
2023/01/07 00:45:49;;;;;;;2.38;1.55;;;;;;;9.95;nan;100974.03;5032832;28;20128;-86
2023/01/07 00:48:16;;;;;;;2.13;1.30;;;;;;;9.93;nan;100981.25;5023238;28;20084;-86
2023/01/07 00:50:41;;;;;;;2.92;1.40;;;;;;;9.95;nan;100968.75;5036870;28;20064;-86
2023/01/07 00:53:09;;;;;;;2.70;1.52;;;;;;;9.92;nan;100963.75;5029904;28;20614;-86
2023/01/07 00:55:34;;;;;;;3.10;1.60;;;;;;;9.94;nan;100961.81;5015153;28;20046;-86
2023/01/07 00:58:00;;;;;;;2.50;1.70;;;;;;;9.93;nan;100965.41;5018602;28;20572;-86
2023/01/07 01:00:25;;;;;;;2.72;1.45;;;;;;;9.96;nan;100954.56;5046051;28;20033;-86
2023/01/07 01:02:52;;;;;;;1.80;1.35;;;;;;;9.98;nan;100963.16;5015484;28;20172;-86
2023/01/07 01:05:18;;;;;;;2.53;1.60;;;;;;;10.02;nan;100957.63;5010360;28;20094;-85
2023/01/07 01:07:43;;;;;;;2.72;1.60;;;;;;;10.02;nan;100965.56;5013859;28;20030;-85
2023/01/07 01:10:13;;;;;;;1.83;1.20;;;;;;;10.02;nan;100965.56;5031219;28;20030;-85
2023/01/07 01:12:40;;;;;;;2.30;1.55;;;;;;;10.07;nan;100960.69;5014891;28;20073;-86
2023/01/07 01:15:11;;;;;;;2.40;1.30;;;;;;;10.04;nan;100963.63;5033779;28;20033;-86
2023/01/07 01:17:37;;;;;;;;;;;;;;;10.02;nan;100960.28;5015562;28;20041;-86
2023/01/07 01:20:04;;;;;;;2.10;1.40;;;;;;;9.99;nan;100962.22;5040933;28;19917;-85
2023/01/07 01:22:29;;;;;;;2.50;1.50;;;;;;;10.00;nan;100953.31;5031958;28;20533;-86
2023/01/07 01:24:54;;;;;;;2.20;1.30;;;;;;;10.00;nan;100955.94;5017083;28;20073;-86
2023/01/07 01:27:20;;;;;;;3.42;1.50;;;;;;;10.04;nan;100958.34;5041250;28;20445;-86
2023/01/07 01:29:45;;;;;;;2.35;1.40;;;;;;;10.02;nan;100958.47;5020624;28;20052;-86
2023/01/07 01:32:11;;;;;;;1.98;1.30;;;;;;;10.07;nan;100955.41;5013541;28;20052;-86
2023/01/07 01:34:39;;;;;;;2.10;1.30;;;;;;;10.05;nan;100952.91;5029571;28;20036;-86
2023/01/07 01:37:04;;;;;;;2.35;1.40;;;;;;;10.04;nan;100958.34;5024693;28;20050;-85
2023/01/07 01:39:29;;;;;;;2.45;1.55;;;;;;;10.06;nan;100953.72;5018495;28;20423;-85
2023/01/07 01:41:55;;;;;;;2.55;1.27;;;;;;;10.07;nan;100948.31;5017312;28;20057;-85
2023/01/07 01:44:49;;;;;;;1.90;1.23;;;;;;;10.07;nan;100950.94;5015306;28;20093;-86
2023/01/07 01:47:21;;;;;;;1.95;1.15;;;;;;;10.10;nan;100947.19;5022224;28;20033;-86
2023/01/07 01:49:56;;;;;;;1.73;1.08;;;;;;;10.08;nan;100943.84;5005927;28;20041;-86
2023/01/07 01:52:29;;;;;;;2.03;1.20;;;;;;;10.06;nan;100940.50;5015044;28;20030;-86
2023/01/07 01:54:58;;;;;;;2.13;1.10;;;;;;;10.06;nan;100937.88;5016035;28;20048;-86
2023/01/07 01:57:26;;;;;;;2.40;1.20;;;;;;;10.04;nan;100934.56;5022401;28;20080;-86
2023/01/07 01:59:52;;;;;;;2.33;1.30;;;;;;;10.03;nan;100932.88;5040348;28;20057;-86
2023/01/07 02:02:26;;;;;;;1.88;1.10;;;;;;;10.03;nan;100935.50;5038850;28;20030;-86
2023/01/07 02:04:53;;;;;;;1.70;1.08;;;;;;;10.03;nan;100932.88;5013400;28;20040;-86
2023/01/07 02:07:19;;;;;;;2.10;1.30;;;;;;;10.02;nan;100928.56;5026695;28;20026;-86
2023/01/07 02:09:45;;;;;;;1.85;1.20;;;;;;;10.02;nan;100936.50;5010033;28;20036;-86
2023/01/07 02:12:26;;;;;;;2.10;1.23;;;;;;;10.02;nan;100929.41;5022603;28;20030;-87
2023/01/07 02:15:21;;;;;;;1.73;1.08;;;;;;;10.00;nan;100924.25;5031016;28;20526;-85
2023/01/07 02:17:57;;;;;;;1.70;1.10;;;;;;;10.03;nan;100920.50;5000383;28;20049;-86
2023/01/07 02:21:05;;;;;;;1.85;1.17;;;;;;;10.03;nan;100923.13;5028651;28;20029;-86
2023/01/07 02:23:58;;;;;;;1.60;1.08;;;;;;;10.00;nan;100916.31;4970415;28;20078;-86
2023/01/07 02:26:53;;;;;;;1.50;1.08;;;;;;;10.00;nan;100916.31;5022498;28;20040;-85
2023/01/07 02:30:10;;;;;;;1.42;1.00;;;;;;;10.01;nan;100909.25;5032408;28;20026;-85
2023/01/07 02:32:41;;;;;;;2.72;1.20;;;;;;;10.00;nan;100907.56;5038874;28;20033;-85
2023/01/07 02:35:12;;;;;;;;;;;;;;;10.03;nan;100911.72;5056482;28;20071;-85
2023/01/07 02:37:53;;;;;;;1.80;1.10;;;;;;;10.02;nan;100904.78;5024536;28;19921;-85
2023/01/07 02:40:26;;;;;;;2.40;1.33;;;;;;;10.02;nan;100899.50;5024290;28;20064;-85
2023/01/07 02:43:15;;;;;;;2.92;1.23;;;;;;;10.04;nan;100901.03;5029495;28;20668;-86
2023/01/07 02:45:55;;;;;;;2.55;1.05;;;;;;;10.02;nan;100897.69;5012098;28;20120;-85
2023/01/07 02:48:21;;;;;;;1.13;0.80;;;;;;;10.01;nan;100893.41;5020016;28;20117;-85
2023/01/07 02:50:47;;;;;;;1.90;0.90;;;;;;;10.05;nan;100894.75;5025827;28;20056;-85
2023/01/07 02:53:18;;;;;;;2.15;0.98;;;;;;;10.06;nan;100895.59;5010601;28;20034;-86
2023/01/07 02:56:02;;;;;;;;;;;;;;;10.05;nan;100888.66;5011056;28;20045;-85
2023/01/07 02:58:42;;;;;;;1.92;1.20;;;;;;;10.05;nan;100891.31;5005344;28;19943;-85
2023/01/07 03:01:45;;;;;;;1.23;0.88;;;;;;;10.03;nan;100875.56;5018981;28;20037;-85
2023/01/07 03:04:43;;;;;;;1.55;0.90;;;;;;;10.06;nan;100879.75;5025854;28;20038;-86
2023/01/07 03:07:23;;;;;;;1.50;0.93;;;;;;;10.06;nan;100875.31;5008588;28;20034;-86
2023/01/07 03:10:16;;;;;;;1.60;1.00;;;;;;;10.07;nan;100857.66;5024864;28;20025;-85
2023/01/07 03:12:45;;;;;;;2.08;1.02;;;;;;;10.07;nan;100869.03;5025896;28;20041;-86
2023/01/07 03:15:19;;;;;;;1.48;0.90;;;;;;;10.06;nan;100862.09;5022735;28;20034;-86
2023/01/07 03:17:57;;;;;;;1.40;0.82;;;;;;;10.07;nan;100863.75;5027394;28;20034;-86
2023/01/07 03:20:23;;;;;;;1.92;1.00;;;;;;;10.07;nan;100857.66;5027453;28;20179;-86
2023/01/07 03:22:51;;;;;;;1.42;1.00;;;;;;;10.07;nan;100860.28;5007465;28;20045;-86
2023/01/07 03:25:19;;;;;;;2.33;1.20;;;;;;;10.08;nan;100859.31;5009373;28;20041;-86
2023/01/07 03:27:47;;;;;;;1.48;0.90;;;;;;;10.08;nan;100856.66;5013253;28;20041;-86
2023/01/07 03:30:14;;;;;;;1.80;1.20;;;;;;;10.06;nan;100856.81;5010082;28;20180;-86
2023/01/07 03:33:13;;;;;;;1.65;1.08;;;;;;;10.08;nan;100851.38;5008467;28;20033;-87
2023/01/07 03:35:44;;;;;;;1.33;0.90;;;;;;;10.07;nan;100852.38;5021673;28;20135;-86
2023/01/07 03:38:11;;;;;;;2.30;1.17;;;;;;;10.06;nan;100845.41;5013077;28;20040;-86
2023/01/07 03:40:37;;;;;;;1.77;1.10;;;;;;;10.09;nan;100848.59;5026564;28;20048;-86
2023/01/07 03:43:03;;;;;;;1.60;1.10;;;;;;;10.05;nan;100841.94;5005110;28;20038;-86
2023/01/07 03:45:29;;;;;;;2.28;1.40;;;;;;;10.04;nan;100847.38;5016528;28;20173;-85
2023/01/07 03:47:56;;;;;;;2.67;1.23;;;;;;;10.08;nan;100846.94;5029915;28;20073;-86
2023/01/07 03:50:22;;;;;;;1.48;1.02;;;;;;;10.04;nan;100835.00;4997640;28;20053;-85
2023/01/07 03:52:49;;;;;;;1.60;1.10;;;;;;;10.00;nan;100844.97;5031708;28;20089;-85
2023/01/07 03:55:14;;;;;;;1.27;1.00;;;;;;;10.03;nan;100843.03;5013764;28;20506;-86
2023/01/07 03:57:40;;;;;;;1.70;1.20;;;;;;;10.00;nan;100838.88;5022183;28;20033;-85
2023/01/07 04:00:09;;;;;;;2.08;1.13;;;;;;;9.98;nan;100836.38;5033786;28;20033;-86
2023/01/07 04:02:34;;;;;;;2.85;1.30;;;;;;;10.02;nan;100838.75;5047097;28;20034;-87
2023/01/07 04:04:59;;;;;;;1.42;1.10;;;;;;;10.02;nan;100833.47;5031526;28;20196;-86
2023/01/07 04:07:25;;;;;;;2.30;1.20;;;;;;;10.02;nan;100833.47;5013772;28;20500;-85
2023/01/07 04:09:50;;;;;;;2.20;1.27;;;;;;;10.02;nan;100828.19;5030812;28;20041;-85
2023/01/07 04:12:16;;;;;;;2.00;1.25;;;;;;;9.99;nan;100824.00;5012543;28;20040;-85
2023/01/07 04:14:41;;;;;;;1.67;1.05;;;;;;;9.99;nan;100819.56;5030912;28;20096;-85
2023/01/07 04:17:06;;;;;;;1.40;1.00;;;;;;;10.11;nan;100822.06;5013376;28;20398;-85
2023/01/07 04:19:32;;;;;;;;;;;;;;;10.07;nan;100820.66;5042193;28;20053;-86
2023/01/07 04:21:57;;;;;;;1.77;1.10;;;;;;;10.03;nan;100812.16;5031063;28;19967;-85
2023/01/07 04:24:22;;;;;;;;;;;;;;;9.98;nan;100807.31;5013193;28;20037;-85
2023/01/07 04:26:48;;;;;;;;;;;;;;;9.96;nan;100806.63;5014102;28;20312;-85
2023/01/07 04:29:13;;;;;;;1.83;1.10;;;;;;;9.95;nan;100804.94;5016032;28;19920;-86
2023/01/07 04:31:38;;;;;;;2.00;1.20;;;;;;;9.94;nan;100803.31;5031375;28;20130;-86
2023/01/07 04:34:04;;;;;;;2.63;1.08;;;;;;;9.89;nan;100794.97;5007564;28;20045;-86
2023/01/07 04:36:29;;;;;;;1.65;1.02;;;;;;;9.91;nan;100806.19;5029678;28;20045;-86
2023/01/07 04:38:54;;;;;;;1.77;1.10;;;;;;;9.88;nan;100803.84;5009142;28;20029;-86
2023/01/07 04:41:20;;;;;;;1.48;0.90;;;;;;;9.87;nan;100802.19;5011369;28;20048;-86
2023/01/07 04:43:45;;;;;;;2.60;1.20;;;;;;;9.86;nan;100799.69;5014582;28;20129;-86
2023/01/07 04:46:10;;;;;;;1.80;1.17;;;;;;;9.85;nan;100798.03;5004806;28;20045;-86
2023/01/07 04:48:35;;;;;;;1.73;1.10;;;;;;;9.84;nan;100783.97;5011049;28;20030;-86
2023/01/07 04:51:01;;;;;;;1.65;1.10;;;;;;;9.83;nan;100784.13;5027012;28;20547;-86
2023/01/07 04:53:26;;;;;;;1.40;0.90;;;;;;;9.83;nan;100786.75;5020551;28;20063;-86
2023/01/07 04:55:53;;;;;;;1.45;0.80;;;;;;;9.83;nan;100781.47;5008996;28;20083;-85
2023/01/07 04:58:18;;;;;;;2.38;0.93;;;;;;;9.82;nan;100782.44;5021999;28;20091;-85
2023/01/07 05:00:44;;;;;;;1.75;1.00;;;;;;;9.84;nan;100783.97;5012191;28;20570;-85
2023/01/07 05:03:09;;;;;;;2.35;1.00;;;;;;;9.84;nan;100777.84;5025268;28;20535;-85
2023/01/07 05:05:34;;;;;;;1.60;1.00;;;;;;;9.78;nan;100780.09;5014499;28;20461;-86
2023/01/07 05:08:00;;;;;;;1.05;0.73;;;;;;;9.80;nan;100769.41;5004132;28;20038;-86
2023/01/07 05:10:25;;;;;;;1.95;1.10;;;;;;;9.79;nan;100773.81;5000604;28;20523;-87
2023/01/07 05:12:50;;;;;;;1.23;0.80;;;;;;;9.78;nan;100769.53;4996559;28;20117;-87
2023/01/07 05:15:16;;;;;;;1.30;0.85;;;;;;;9.79;nan;100767.72;5010668;28;20099;-85
2023/01/07 05:17:41;;;;;;;1.88;1.00;;;;;;;9.77;nan;100769.66;5000718;28;20041;-85
2023/01/07 05:20:07;;;;;;;1.40;0.98;;;;;;;9.76;nan;100763.53;5005644;28;20071;-87
2023/01/07 05:22:32;;;;;;;1.70;1.05;;;;;;;9.75;nan;100766.34;5032110;28;20093;-86
2023/01/07 05:24:58;;;;;;;2.05;1.10;;;;;;;9.75;nan;100763.72;5033479;28;20037;-86
2023/01/07 05:27:23;;;;;;;1.65;1.02;;;;;;;9.75;nan;100755.78;5036309;28;20038;-87
2023/01/07 05:29:48;;;;;;;3.50;1.20;;;;;;;9.73;nan;100752.44;5018253;28;20487;-86
2023/01/07 05:32:14;;;;;;;1.83;1.00;;;;;;;9.71;nan;100744.66;5017774;28;20032;-86
2023/01/07 05:34:39;;;;;;;1.48;0.90;;;;;;;9.71;nan;100747.28;5018689;28;20045;-86
2023/01/07 05:37:04;;;;;;;1.48;0.93;;;;;;;9.67;nan;100742.44;5017816;28;20036;-86
2023/01/07 05:39:29;;;;;;;1.45;1.05;;;;;;;9.69;nan;100740.50;5036317;28;20037;-86
2023/01/07 05:41:55;;;;;;;1.80;0.80;;;;;;;9.70;nan;100742.13;5018128;28;20037;-86
2023/01/07 05:44:20;;;;;;;1.85;0.90;;;;;;;9.68;nan;100733.56;5017601;28;20041;-86
2023/01/07 05:46:45;;;;;;;1.33;0.90;;;;;;;9.70;nan;100739.50;5019396;28;20052;-87
2023/01/07 05:49:11;;;;;;;1.38;0.77;;;;;;;9.70;nan;100734.22;5016628;28;20293;-86
2023/01/07 05:51:36;;;;;;;1.10;0.80;;;;;;;9.69;nan;100730.75;5018049;28;20431;-86
2023/01/07 05:54:01;;;;;;;1.60;0.90;;;;;;;9.71;nan;100734.09;5016505;28;20026;-87
2023/01/07 05:56:27;;;;;;;1.20;0.80;;;;;;;9.70;nan;100732.44;5014119;28;20200;-86
2023/01/07 05:58:52;;;;;;;1.08;0.80;;;;;;;9.69;nan;100722.00;5015310;28;20572;-86
2023/01/07 06:01:17;;;;;;;1.42;0.80;;;;;;;9.70;nan;100726.28;5015513;28;20489;-86
2023/01/07 06:03:43;;;;;;;0.95;0.75;;;;;;;9.68;nan;100725.63;5033801;28;20408;-86
2023/01/07 06:06:08;;;;;;;1.25;0.73;;;;;;;9.69;nan;100729.94;5033441;28;20025;-87
2023/01/07 06:08:35;;;;;;;1.15;0.70;;;;;;;9.70;nan;100728.94;5032632;28;20095;-86
2023/01/07 06:11:00;;;;;;;2.28;0.85;;;;;;;9.70;nan;100723.66;5044771;28;20053;-87
2023/01/07 06:13:26;;;;;;;1.58;0.90;;;;;;;9.68;nan;100723.00;5029215;28;20037;-87
2023/01/07 06:15:51;;;;;;;1.48;0.90;;;;;;;9.68;nan;100721.19;5045221;28;20044;-87
2023/01/07 06:18:16;;;;;;;1.42;0.80;;;;;;;9.68;nan;100723.00;5046153;28;20042;-85
2023/01/07 06:20:41;;;;;;;1.90;1.10;;;;;;;9.65;nan;100723.25;5046299;28;20029;-86
2023/01/07 06:23:09;;;;;;;2.00;1.10;;;;;;;9.65;nan;100717.97;5036359;28;20045;-87
2023/01/07 06:25:34;;;;;;;2.03;1.15;;;;;;;9.63;nan;100718.13;5036514;28;20033;-86
2023/01/07 06:27:59;;;;;;;1.58;1.08;;;;;;;9.63;nan;100714.63;5037837;28;20063;-88
2023/01/07 06:30:25;;;;;;;1.80;1.30;;;;;;;9.63;nan;100709.34;5023590;28;20033;-85
2023/01/07 06:32:50;;;;;;;2.47;1.05;;;;;;;9.63;nan;100710.22;5034163;28;20021;-85
2023/01/07 06:35:16;;;;;;;2.55;1.00;;;;;;;9.60;nan;100701.72;5030397;28;20041;-85
2023/01/07 06:37:41;;;;;;;1.38;0.95;;;;;;;9.60;nan;100701.72;5024977;28;20080;-85
2023/01/07 06:40:07;;;;;;;1.70;1.10;;;;;;;9.59;nan;100702.72;5010571;28;20098;-85
2023/01/07 06:42:32;;;;;;;1.52;1.10;;;;;;;9.59;nan;100700.06;5027587;28;20038;-86
2023/01/07 06:44:58;;;;;;;2.17;1.27;;;;;;;9.58;nan;100696.56;5028485;28;20026;-85
2023/01/07 06:47:24;;;;;;;3.05;1.20;;;;;;;9.62;nan;100683.94;5023726;28;20075;-85
2023/01/07 06:49:50;;;;;;;1.30;0.80;;;;;;;9.56;nan;100686.19;5027873;28;20030;-86
2023/01/07 06:52:15;;;;;;;1.85;1.08;;;;;;;9.54;nan;100682.84;5004003;28;20103;-85
2023/01/07 06:54:40;;;;;;;1.73;0.95;;;;;;;9.55;nan;100689.78;5022067;28;20380;-85
2023/01/07 06:57:06;;;;;;;1.75;1.05;;;;;;;9.56;nan;100677.44;5028544;28;20030;-86
2023/01/07 06:59:31;;;;;;;1.17;0.80;;;;;;;9.55;nan;100668.66;5009289;28;20040;-85
2023/01/07 07:01:56;;;;;;;1.00;0.77;;;;;;;9.54;nan;100669.63;5024040;28;20118;-85
2023/01/07 07:04:21;;;;;;;1.17;0.82;;;;;;;9.56;nan;100672.16;5021972;28;20080;-86
2023/01/07 07:06:47;;;;;;;1.42;1.00;;;;;;;9.54;nan;100668.81;5010679;28;20040;-86
2023/01/07 07:09:12;;;;;;;1.77;1.00;;;;;;;9.53;nan;100669.78;5002489;28;20037;-86
2023/01/07 07:11:38;;;;;;;1.10;0.80;;;;;;;9.49;nan;100666.59;5029575;28;20103;-85
2023/01/07 07:14:03;;;;;;;2.30;1.10;;;;;;;9.50;nan;100665.59;5000448;28;20028;-86
2023/01/07 07:16:29;;;;;;;2.20;1.10;;;;;;;9.52;nan;100671.59;5033848;28;20041;-87
2023/01/07 07:18:54;;;;;;;1.60;1.20;;;;;;;9.51;nan;100671.72;5015511;28;20116;-86
2023/01/07 07:21:19;;;;;;;1.50;1.00;;;;;;;9.50;nan;100672.69;5014081;28;20025;-86
2023/01/07 07:23:45;;;;;;;1.55;0.93;;;;;;;9.48;nan;100664.91;5014388;28;20212;-85
2023/01/07 07:26:10;;;;;;;2.15;1.00;;;;;;;9.53;nan;100656.56;5014447;28;20037;-85
2023/01/07 07:28:36;;;;;;;1.83;0.90;;;;;;;9.53;nan;100652.16;5032462;28;20037;-86
2023/01/07 07:31:01;;;;;;;1.73;1.05;;;;;;;9.55;nan;100660.72;5015351;28;20052;-85
2023/01/07 07:33:27;;;;;;;2.22;1.00;;;;;;;9.60;nan;100656.84;5014659;28;20029;-86
2023/01/07 07:35:53;;;;;;;1.35;1.00;;;;;;;9.60;nan;100648.94;5014561;28;20061;-87
2023/01/07 07:38:19;;;;;;;2.05;1.20;;;;;;;9.62;nan;100649.63;5010424;28;20475;-86
2023/01/07 07:40:45;;;;;;;1.30;0.90;;;;;;;9.63;nan;100651.28;5009038;28;20064;-86
2023/01/07 07:43:10;;;;;;;1.95;1.00;;;;;;;9.65;nan;100646.69;5027097;28;20037;-86
2023/01/07 07:45:36;;;;;;;1.00;0.70;;;;;;;9.65;nan;100644.88;5010234;28;20711;-87
2023/01/07 07:48:04;;;;;;;1.08;0.90;;;;;;;9.68;nan;100646.41;5000058;28;20030;-86
2023/01/07 07:50:30;;;;;;;1.42;0.98;;;;;;;9.67;nan;100637.66;5008331;28;20029;-86
2023/01/07 07:52:55;;;;;;;1.48;0.98;;;;;;;9.69;nan;100637.50;5013284;28;20029;-85
2023/01/07 07:55:20;;;;;;;2.33;1.00;;;;;;;9.68;nan;100635.84;5010429;28;20049;-86
2023/01/07 07:57:46;;;;;;;3.30;1.10;;;;;;;9.68;nan;100634.03;5010643;28;20048;-86
2023/01/07 08:00:12;;;;;;;1.55;0.80;;;;;;;9.70;nan;100632.09;5019856;28;20410;-86
2023/01/07 08:02:37;;;;;;;1.63;1.00;;;;;;;9.68;nan;100627.94;5011916;28;20033;-85
2023/01/07 08:05:03;;;;;;;1.10;0.80;;;;;;;9.70;nan;100633.88;5040989;28;20125;-86
2023/01/07 08:07:28;;;;;;;1.63;0.95;;;;;;;9.68;nan;100622.66;5025852;28;20029;-86
2023/01/07 08:09:53;;;;;;;2.67;1.13;;;;;;;9.72;nan;100630.13;5029402;28;20033;-86
2023/01/07 08:12:19;;;;;;;2.00;0.95;;;;;;;9.71;nan;100620.53;5029110;28;20037;-86
2023/01/07 08:14:44;;;;;;;1.83;1.10;;;;;;;9.74;nan;100619.44;5023261;28;20037;-86
2023/01/07 08:17:09;;;;;;;1.58;1.00;;;;;;;9.76;nan;100615.66;5029986;28;20487;-86
2023/01/07 08:19:35;;;;;;;1.48;1.08;;;;;;;9.81;nan;100607.31;5012409;28;20038;-86
2023/01/07 08:22:00;;;;;;;1.83;1.20;;;;;;;9.79;nan;100603.97;5011383;28;20607;-86
2023/01/07 08:24:25;;;;;;;3.50;1.40;;;;;;;9.80;nan;100613.59;5037249;28;20060;-87
2023/01/07 08:26:54;;;;;;;2.03;1.20;;;;;;;9.85;nan;100606.06;5011143;28;20033;-86
2023/01/07 08:29:20;;;;;;;1.83;1.10;;;;;;;9.90;nan;100606.44;5028604;28;20045;-87
2023/01/07 08:31:45;;;;;;;2.70;1.40;;;;;;;9.91;nan;100601.97;5005602;28;20072;-87
2023/01/07 08:34:10;;;;;;;1.73;1.30;;;;;;;9.97;nan;100602.25;5026526;28;20669;-86
2023/01/07 08:36:35;;;;;;;1.77;1.20;;;;;;;9.97;nan;100602.25;5029288;28;20033;-86
2023/01/07 08:39:01;;;;;;;1.40;1.10;;;;;;;9.98;nan;100598.59;5027005;28;20026;-87
2023/01/07 08:41:26;;;;;;;1.77;1.15;;;;;;;10.02;nan;100588.59;5015164;28;20044;-86
2023/01/07 08:43:52;;;;;;;1.40;1.02;;;;;;;10.04;nan;100591.09;5028681;28;20033;-86
2023/01/07 08:46:17;;;;;;;1.88;1.30;;;;;;;10.07;nan;100596.91;5008836;28;20082;-86
2023/01/07 08:48:43;;;;;;;1.85;1.27;;;;;;;10.02;nan;100593.88;5005590;28;20496;-86
2023/01/07 08:51:08;;;;;;;1.90;1.10;;;;;;;10.07;nan;100596.91;5021862;28;20034;-87
2023/01/07 08:53:33;;;;;;;1.58;1.00;;;;;;;10.08;nan;100595.09;5006605;28;20036;-86
2023/01/07 08:55:59;;;;;;;1.65;1.00;;;;;;;10.06;nan;100591.75;5035776;28;20492;-86
2023/01/07 08:58:24;;;;;;;1.43;1.00;;;;;;;10.19;nan;100590.44;5019595;28;20493;-86
2023/01/07 09:00:50;;;;;;;2.85;1.30;;;;;;;10.14;nan;100597.16;5014732;28;20831;-86
2023/01/07 09:03:16;;;;;;;2.15;1.17;;;;;;;10.12;nan;100584.09;5016130;28;20483;-85
2023/01/07 09:05:41;;;;;;;1.10;0.80;;;;;;;10.28;nan;100588.75;5016715;28;20411;-86
2023/01/07 09:08:06;;;;;;;1.13;0.88;;;;;;;10.25;nan;100580.25;5017118;28;20631;-85
2023/01/07 09:10:31;;;;;;;1.83;1.25;;;;;;;10.28;nan;100572.06;5034791;28;20025;-85
2023/01/07 09:12:57;;;;;;;;;;;;;;;10.26;nan;100574.81;5017593;28;20053;-85
2023/01/07 09:15:22;;;;;;;1.57;1.00;;;;;;;10.29;nan;100573.72;5035043;28;19920;-85
2023/01/07 09:17:47;;;;;;;;;;;;;;;10.30;nan;100576.22;5017341;28;20283;-86
2023/01/07 09:20:13;;;;;;;1.73;1.07;;;;;;;10.31;nan;100566.50;5016662;28;19947;-85
2023/01/07 09:22:38;;;;;;;2.08;1.20;;;;;;;10.33;nan;100565.34;5034733;28;20037;-86
2023/01/07 09:25:04;;;;;;;1.48;1.00;;;;;;;10.37;nan;100560.63;5028963;28;20042;-86
2023/01/07 09:27:30;;;;;;;2.05;1.25;;;;;;;10.43;nan;100559.19;5016668;28;20033;-86
2023/01/07 09:29:57;;;;;;;1.90;1.10;;;;;;;10.43;nan;100557.34;5015186;28;20037;-86
2023/01/07 09:32:27;;;;;;;1.55;1.10;;;;;;;10.50;nan;100558.41;5030841;28;20034;-86
2023/01/07 09:34:53;;;;;;;1.83;1.10;;;;;;;10.60;nan;100548.59;5033561;28;20565;-85
2023/01/07 09:37:18;;;;;;;2.60;1.30;;;;;;;10.68;nan;100555.78;5034859;28;20037;-87
2023/01/07 09:39:44;;;;;;;1.73;1.00;;;;;;;10.69;nan;100552.16;5036366;28;20030;-85
2023/01/07 09:42:34;;;;;;;1.85;1.10;;;;;;;10.79;nan;100550.25;5004323;28;20037;-85
2023/01/07 09:45:05;;;;;;;1.17;0.85;;;;;;;10.84;nan;100544.50;5032328;28;20259;-85
2023/01/07 09:47:33;;;;;;;1.30;0.95;;;;;;;10.91;nan;100536.78;5040681;28;20116;-87
2023/01/07 09:50:40;;;;;;;2.65;1.02;;;;;;;11.02;nan;100536.56;5016020;28;20037;-86
2023/01/07 09:53:38;;;;;;;1.45;0.90;;;;;;;11.17;nan;100529.69;5022789;28;20033;-86
2023/01/07 09:56:19;;;;;;;1.20;0.80;;;;;;;11.20;nan;100526.75;5005429;28;20033;-86
2023/01/07 09:58:46;;;;;;;1.15;0.80;;;;;;;11.30;nan;100533.72;5015139;28;20461;-86
2023/01/07 10:01:22;;;;;;;1.60;0.90;;;;;;;11.41;nan;100525.53;5002427;28;20637;-86
2023/01/07 10:04:09;;;;;;;1.33;0.80;;;;;;;11.54;nan;100527.78;5031748;28;20057;-86
2023/01/07 10:06:52;;;;;;;1.20;0.90;;;;;;;11.53;nan;100536.69;5028109;28;20033;-86
2023/01/07 10:09:50;;;;;;;0.90;0.60;;;;;;;11.59;nan;100530.78;5029441;28;20033;-86
2023/01/07 10:12:18;;;;;;;1.90;0.80;;;;;;;11.65;nan;100525.66;5009485;28;20041;-86
2023/01/07 10:15:05;;;;;;;1.17;0.80;;;;;;;11.71;nan;100523.38;5011214;28;20044;-86
2023/01/07 10:17:54;;;;;;;1.23;0.95;;;;;;;11.76;nan;100524.56;5027090;28;20125;-86
2023/01/07 10:20:39;;;;;;;1.08;0.70;;;;;;;12.00;nan;100517.72;5008620;28;20438;-86
2023/01/07 10:23:24;;;;;;;1.57;0.83;;;;;;;12.04;nan;100519.88;5025014;28;20415;-85
2023/01/07 10:25:53;;;;;;;2.22;0.80;;;;;;;11.93;nan;100509.56;5016762;28;20619;-86
2023/01/07 10:28:24;;;;;;;0.85;0.73;;;;;;;11.96;nan;100505.78;5024062;28;20037;-86
2023/01/07 10:30:51;;;;;;;;;;;;;;;11.92;nan;100504.41;5007239;28;20471;-87
2023/01/07 10:33:27;;;;;;;0.60;0.60;;;;;;;11.89;nan;100503.78;5028346;28;19924;-87
2023/01/07 10:36:27;;;;;;;0.90;0.60;;;;;;;11.95;nan;100504.13;5009930;28;20125;-86
2023/01/07 10:39:25;;;;;;;0.88;0.60;;;;;;;11.89;nan;100498.47;5023141;28;20422;-86
2023/01/07 10:41:59;;;;;;;1.10;0.60;;;;;;;11.96;nan;100501.28;5025501;28;20033;-86
2023/01/07 10:44:56;;;;;;;0.95;0.60;;;;;;;11.94;nan;100495.34;5025672;28;20373;-86
2023/01/07 10:47:52;;;;;;;0.77;0.70;;;;;;;11.90;nan;100486.06;5023882;28;20102;-86
2023/01/07 10:50:41;;;;;;;1.23;0.68;;;;;;;11.89;nan;100490.53;5007367;28;20459;-86
2023/01/07 10:53:12;;;;;;;1.40;0.90;;;;;;;11.91;nan;100482.41;5010518;28;20033;-86
2023/01/07 10:55:44;;;;;;;0.90;0.63;;;;;;;11.92;nan;100470.81;5006596;28;20133;-86
2023/01/07 10:58:10;;;;;;;1.13;0.50;;;;;;;11.92;nan;100473.47;5019377;28;20036;-86
2023/01/07 11:00:38;;;;;;;0.93;0.63;;;;;;;11.98;nan;100461.38;5031811;28;20605;-86
2023/01/07 11:03:13;;;;;;;0.77;0.70;;;;;;;12.09;nan;100456.59;5026981;28;20024;-86
2023/01/07 11:05:38;;;;;;;1.20;0.73;;;;;;;12.21;nan;100443.88;5028084;28;20395;-85
2023/01/07 11:08:12;;;;;;;0.65;0.63;;;;;;;12.24;nan;100435.56;5011836;28;20045;-86
2023/01/07 11:10:38;;;;;;;1.20;0.80;;;;;;;12.23;nan;100438.41;5024772;28;20038;-86
2023/01/07 11:13:23;;;;;;;1.38;0.80;;;;;;;12.21;nan;100435.09;5024442;28;20107;-86
2023/01/07 11:15:59;;;;;;;1.38;0.68;;;;;;;12.30;nan;100428.81;5005854;28;20033;-86
2023/01/07 11:18:32;;;;;;;1.15;0.70;;;;;;;12.34;nan;100424.81;5007539;28;20037;-86
2023/01/07 11:20:58;;;;;;;1.58;0.70;;;;;;;12.37;nan;100421.00;5007991;28;20033;-87
2023/01/07 11:23:28;;;;;;;0.68;0.65;;;;;;;12.37;nan;100419.19;5024097;28;20546;-86
2023/01/07 11:26:05;;;;;;;2.38;0.82;;;;;;;12.39;nan;100409.22;5007507;28;20049;-87
2023/01/07 11:28:32;;;;;;;1.40;0.90;;;;;;;12.37;nan;100413.88;5006299;28;20029;-86
2023/01/07 11:30:58;;;;;;;1.33;0.70;;;;;;;12.27;nan;100415.84;5024883;28;20041;-85
2023/01/07 11:33:30;;;;;;;1.50;0.98;;;;;;;12.17;nan;100396.66;5011218;28;20055;-86
2023/01/07 11:35:56;;;;;;;0.90;0.70;;;;;;;12.14;nan;100397.81;5028555;28;20116;-86
2023/01/07 11:38:30;;;;;;;1.88;0.90;;;;;;;12.04;nan;100391.84;5027965;28;20124;-85
2023/01/07 11:40:58;;;;;;;1.30;1.00;;;;;;;12.03;nan;100380.38;5024893;28;20067;-86
2023/01/07 11:43:29;;;;;;;1.45;0.90;;;;;;;12.05;nan;100377.59;5009166;28;20038;-86
2023/01/07 11:45:57;;;;;;;1.10;0.90;;;;;;;12.00;nan;100378.09;5010850;28;20045;-86
2023/01/07 11:48:25;;;;;;;1.00;0.80;;;;;;;12.06;nan;100382.72;5027846;28;20040;-86
2023/01/07 11:51:09;;;;;;;1.35;1.00;;;;;;;12.00;nan;100364.00;5011175;28;20038;-86
2023/01/07 11:53:42;;;;;;;1.83;1.10;;;;;;;11.98;nan;100366.00;5008062;28;20079;-86
2023/01/07 11:56:20;;;;;;;2.03;1.10;;;;;;;11.97;nan;100367.00;5007143;28;20034;-86
2023/01/07 11:58:59;;;;;;;1.90;1.10;;;;;;;12.00;nan;100356.06;5027529;28;20060;-86
2023/01/07 12:01:24;;;;;;;1.50;0.93;;;;;;;12.01;nan;100347.94;5028077;28;20034;-87